createdAt,value
2023-04-25T00:00:54.444Z,94550.00
2023-04-25T00:01:54.374Z,94546.00
2023-04-25T00:02:54.608Z,94546.00
2023-04-25T00:03:54.888Z,94548.00
2023-04-25T00:04:54.760Z,94548.00
2023-04-25T00:05:54.702Z,94546.00
2023-04-25T00:06:54.631Z,94548.00
2023-04-25T00:07:54.688Z,94548.00
2023-04-25T00:08:54.669Z,94548.00
2023-04-25T00:09:54.738Z,94550.00
2023-04-25T00:10:54.753Z,94548.00
2023-04-25T00:11:54.807Z,94548.00
2023-04-25T00:12:54.848Z,94550.00
2023-04-25T00:13:54.942Z,94550.00
2023-04-25T00:14:54.935Z,94550.00
2023-04-25T00:15:55.011Z,94548.00
2023-04-25T00:16:55.038Z,94550.00
2023-04-25T00:17:55.142Z,94546.00
2023-04-25T00:18:55.129Z,94548.00
2023-04-25T00:19:55.223Z,94544.00
2023-04-25T00:20:55.237Z,94548.00
2023-04-25T00:21:55.329Z,94548.00
2023-04-25T00:22:55.355Z,94546.00
2023-04-25T00:23:55.437Z,94544.00
2023-04-25T00:24:55.398Z,94544.00
2023-04-25T00:25:55.470Z,94544.00
2023-04-25T00:26:55.483Z,94544.00
2023-04-25T00:27:55.440Z,94542.00
2023-04-25T00:28:55.448Z,94544.00
2023-04-25T00:29:55.465Z,94542.00
2023-04-25T00:30:55.491Z,94542.00
2023-04-25T00:31:55.451Z,94544.00
2023-04-25T00:32:55.460Z,94544.00
2023-04-25T00:33:55.518Z,94546.00
2023-04-25T00:34:55.529Z,94542.00
2023-04-25T00:35:55.527Z,94544.00
2023-04-25T00:36:55.532Z,94546.00
2023-04-25T00:37:55.547Z,94548.00
2023-04-25T00:38:55.557Z,94548.00
2023-04-25T00:39:55.578Z,94550.00
2023-04-25T00:40:55.628Z,94550.00
2023-04-25T00:41:55.714Z,94552.00
2023-04-25T00:42:55.722Z,94554.00
2023-04-25T00:43:55.817Z,94554.00
2023-04-25T00:44:55.851Z,94555.00
2023-04-25T00:45:55.915Z,94552.00
2023-04-25T00:46:56.044Z,94552.00
2023-04-25T00:47:56.049Z,94552.00
2023-04-25T00:48:56.114Z,94548.00
2023-04-25T00:49:56.136Z,94546.00
2023-04-25T00:50:56.219Z,94548.00
2023-04-25T00:51:56.250Z,94548.00
2023-04-25T00:52:56.271Z,94550.00
2023-04-25T00:53:56.290Z,94550.00
2023-04-25T00:54:56.309Z,94550.00
2023-04-25T00:55:56.566Z,94548.00
2023-04-25T00:56:56.390Z,94548.00
2023-04-25T00:57:56.436Z,94548.00
2023-04-25T00:58:56.463Z,94548.00
2023-04-25T00:59:56.510Z,94548.00
2023-04-25T01:00:56.546Z,94552.00
2023-04-25T01:01:56.588Z,94552.00
2023-04-25T01:02:56.623Z,94555.00
2023-04-25T01:03:56.753Z,94554.00
2023-04-25T01:04:56.510Z,94555.00
2023-04-25T01:05:56.499Z,94555.00
2023-04-25T01:06:56.512Z,94555.00
2023-04-25T01:07:56.511Z,94554.00
2023-04-25T01:08:56.531Z,94552.00
2023-04-25T01:09:56.613Z,94552.00
2023-04-25T01:10:56.583Z,94546.00
2023-04-25T01:11:56.561Z,94540.00
2023-04-25T01:12:56.561Z,94542.00
2023-04-25T01:13:56.543Z,94538.00
2023-04-25T01:14:56.605Z,94540.00
2023-04-25T01:15:56.565Z,94540.00
2023-04-25T01:16:56.591Z,94538.00
2023-04-25T01:17:56.724Z,94538.00
2023-04-25T01:18:56.564Z,94538.00
2023-04-25T01:19:56.560Z,94534.00
2023-04-25T01:20:56.615Z,94536.00
2023-04-25T01:21:56.576Z,94534.00
2023-04-25T01:22:56.579Z,94536.00
2023-04-25T01:23:56.592Z,94532.00
2023-04-25T01:24:56.633Z,94536.00
2023-04-25T01:25:56.625Z,94532.00
2023-04-25T01:26:56.703Z,94532.00
2023-04-25T01:27:57.022Z,94532.00
2023-04-25T01:28:56.709Z,94532.00
2023-04-25T01:29:56.724Z,94534.00
2023-04-25T01:30:56.762Z,94534.00
2023-04-25T01:31:56.812Z,94534.00
2023-04-25T01:32:56.807Z,94534.00
2023-04-25T01:33:56.851Z,94536.00
2023-04-25T01:34:56.849Z,94536.00
2023-04-25T01:35:56.865Z,94536.00
2023-04-25T01:39:27.846Z,94536.00
2023-04-25T01:40:27.855Z,94534.00
2023-04-25T01:41:27.843Z,94530.00
2023-04-25T01:42:27.833Z,94530.00
2023-04-25T01:43:27.862Z,94530.00
2023-04-25T01:44:28.237Z,94532.00
2023-04-25T01:45:27.789Z,94530.00
2023-04-25T01:46:27.878Z,94530.00
2023-04-25T01:47:27.895Z,94530.00
2023-04-25T01:48:27.800Z,94528.00
2023-04-25T01:49:27.800Z,94530.00
2023-04-25T01:50:27.794Z,94528.00
2023-04-25T01:51:27.799Z,94530.00
2023-04-25T01:52:27.793Z,94526.00
2023-04-25T01:53:27.783Z,94528.00
2023-04-25T01:54:27.755Z,94528.00
2023-04-25T01:55:27.770Z,94524.00
2023-04-25T01:56:27.723Z,94524.00
2023-04-25T01:57:27.745Z,94524.00
2023-04-25T01:58:27.735Z,94524.00
2023-04-25T01:59:27.699Z,94524.00
2023-04-25T02:00:27.700Z,94524.00
2023-04-25T02:01:27.767Z,94524.00
2023-04-25T02:02:27.769Z,94528.00
2023-04-25T02:03:27.742Z,94526.00
2023-04-25T02:04:27.841Z,94528.00
2023-04-25T02:05:27.682Z,94526.00
2023-04-25T02:06:27.670Z,94526.00
2023-04-25T02:07:27.714Z,94526.00
2023-04-25T02:08:27.657Z,94530.00
2023-04-25T02:09:27.706Z,94530.00
2023-04-25T02:10:27.655Z,94532.00
2023-04-25T02:11:27.644Z,94534.00
2023-04-25T02:12:27.644Z,94532.00
2023-04-25T02:13:27.610Z,94532.00
2023-04-25T02:14:27.657Z,94530.00
2023-04-25T02:15:27.664Z,94530.00
2023-04-25T02:16:27.770Z,94530.00
2023-04-25T02:17:27.659Z,94530.00
2023-04-25T02:18:27.583Z,94528.00
2023-04-25T02:19:27.611Z,94532.00
2023-04-25T02:20:27.632Z,94530.00
2023-04-25T02:21:27.625Z,94530.00
2023-04-25T02:22:27.564Z,94530.00
2023-04-25T02:23:27.542Z,94530.00
2023-04-25T02:24:27.564Z,94532.00
2023-04-25T02:25:27.555Z,94530.00
2023-04-25T02:26:27.566Z,94530.00
2023-04-25T02:27:27.504Z,94532.00
2023-04-25T02:28:27.534Z,94526.00
2023-04-25T02:29:27.537Z,94526.00
2023-04-25T02:30:27.514Z,94526.00
2023-04-25T02:31:27.584Z,94528.00
2023-04-25T02:32:27.532Z,94526.00
2023-04-25T02:33:27.506Z,94528.00
2023-04-25T02:34:27.504Z,94526.00
2023-04-25T02:35:27.533Z,94530.00
2023-04-25T02:36:27.503Z,94532.00
2023-04-25T02:37:27.519Z,94530.00
2023-04-25T02:38:27.525Z,94528.00
2023-04-25T02:39:27.597Z,94532.00
2023-04-25T02:40:27.540Z,94528.00
2023-04-25T02:41:27.548Z,94528.00
2023-04-25T02:42:27.567Z,94526.00
2023-04-25T02:43:27.636Z,94530.00
2023-04-25T02:44:27.628Z,94528.00
2023-04-25T02:45:27.575Z,94528.00
2023-04-25T02:46:38.532Z,94532.00
2023-04-25T02:47:28.709Z,94532.00
2023-04-25T02:48:27.547Z,94530.00
2023-04-25T02:49:27.563Z,94530.00
2023-04-25T02:50:27.558Z,94530.00
2023-04-25T02:51:27.576Z,94532.00
2023-04-25T02:52:27.939Z,94530.00
2023-04-25T02:53:27.539Z,94530.00
2023-04-25T02:54:27.544Z,94532.00
2023-04-25T02:55:28.513Z,94534.00
2023-04-25T02:56:27.509Z,94532.00
2023-04-25T02:57:27.499Z,94532.00
2023-04-25T02:58:27.584Z,94534.00
2023-04-25T02:59:27.514Z,94534.00
2023-04-25T03:00:27.491Z,94534.00
2023-04-25T03:01:27.696Z,94536.00
2023-04-25T03:02:27.534Z,94532.00
2023-04-25T03:03:27.523Z,94530.00
2023-04-25T03:04:27.519Z,94536.00
2023-04-25T03:05:27.475Z,94534.00
2023-04-25T03:06:27.444Z,94530.00
2023-04-25T03:07:27.555Z,94534.00
2023-04-25T03:08:27.520Z,94534.00
2023-04-25T03:09:27.594Z,94534.00
2023-04-25T03:10:27.605Z,94530.00
2023-04-25T03:11:27.609Z,94534.00
2023-04-25T03:12:27.618Z,94532.00
2023-04-25T03:13:27.616Z,94534.00
2023-04-25T03:14:27.621Z,94534.00
2023-04-25T03:15:27.629Z,94534.00
2023-04-25T03:16:27.688Z,94530.00
2023-04-25T03:17:27.673Z,94530.00
2023-04-25T03:18:27.680Z,94532.00
2023-04-25T03:19:27.659Z,94534.00
2023-04-25T03:20:27.660Z,94532.00
2023-04-25T03:21:27.675Z,94528.00
2023-04-25T03:22:27.701Z,94526.00
2023-04-25T03:23:27.691Z,94524.00
2023-04-25T03:24:27.735Z,94526.00
2023-04-25T03:25:27.756Z,94524.00
2023-04-25T03:26:27.765Z,94522.00
2023-04-25T03:27:27.762Z,94522.00
2023-04-25T03:28:27.875Z,94524.00
2023-04-25T03:29:27.817Z,94526.00
2023-04-25T03:30:27.797Z,94524.00
2023-04-25T03:31:27.808Z,94526.00
2023-04-25T03:32:27.794Z,94524.00
2023-04-25T03:33:27.811Z,94524.00
2023-04-25T03:34:27.871Z,94524.00
2023-04-25T03:35:27.828Z,94524.00
2023-04-25T03:36:27.834Z,94524.00
2023-04-25T03:37:27.854Z,94520.00
2023-04-25T03:38:27.841Z,94518.00
2023-04-25T03:39:27.855Z,94520.00
2023-04-25T03:40:27.818Z,94518.00
2023-04-25T03:41:27.821Z,94520.00
2023-04-25T03:42:27.815Z,94526.00
2023-04-25T03:43:27.852Z,94522.00
2023-04-25T03:44:27.834Z,94522.00
2023-04-25T03:45:27.900Z,94524.00
2023-04-25T03:46:28.049Z,94516.00
2023-04-25T03:47:27.930Z,94516.00
2023-04-25T03:48:27.959Z,94514.00
2023-04-25T03:49:28.110Z,94514.00
2023-04-25T03:50:28.076Z,94516.00
2023-04-25T03:51:28.100Z,94516.00
2023-04-25T03:52:28.084Z,94516.00
2023-04-25T03:53:28.155Z,94516.00
2023-04-25T03:54:28.154Z,94518.00
2023-04-25T03:55:28.222Z,94518.00
2023-04-25T03:56:28.262Z,94518.00
2023-04-25T03:57:28.259Z,94518.00
2023-04-25T03:58:28.342Z,94516.00
2023-04-25T03:59:28.347Z,94516.00
2023-04-25T04:00:28.400Z,94516.00
2023-04-25T04:01:28.413Z,94516.00
2023-04-25T04:02:28.548Z,94516.00
2023-04-25T04:03:28.636Z,94516.00
2023-04-25T04:04:28.750Z,94514.00
2023-04-25T04:05:28.616Z,94516.00
2023-04-25T04:06:28.583Z,94514.00
2023-04-25T04:07:28.613Z,94518.00
2023-04-25T04:08:28.691Z,94510.00
2023-04-25T04:09:28.736Z,94512.00
2023-04-25T04:10:28.808Z,94512.00
2023-04-25T04:11:28.770Z,94512.00
2023-04-25T04:12:28.823Z,94512.00
2023-04-25T04:13:28.837Z,94514.00
2023-04-25T04:14:28.903Z,94516.00
2023-04-25T04:15:28.939Z,94514.00
2023-04-25T04:16:29.003Z,94518.00
2023-04-25T04:17:29.022Z,94514.00
2023-04-25T04:18:29.066Z,94516.00
2023-04-25T04:19:29.043Z,94516.00
2023-04-25T04:20:29.040Z,94514.00
2023-04-25T04:21:29.056Z,94518.00
2023-04-25T04:22:29.090Z,94518.00
2023-04-25T04:23:29.178Z,94518.00
2023-04-25T04:24:29.178Z,94516.00
2023-04-25T04:25:29.200Z,94518.00
2023-04-25T04:26:29.223Z,94520.00
2023-04-25T04:27:29.232Z,94520.00
2023-04-25T04:28:29.237Z,94520.00
2023-04-25T04:29:29.289Z,94520.00
2023-04-25T04:30:29.278Z,94518.00
2023-04-25T04:31:29.354Z,94516.00
2023-04-25T04:32:29.330Z,94518.00
2023-04-25T04:33:29.308Z,94516.00
2023-04-25T04:34:29.384Z,94514.00
2023-04-25T04:35:29.481Z,94514.00
2023-04-25T04:36:29.390Z,94510.00
2023-04-25T04:37:29.394Z,94510.00
2023-04-25T04:38:29.414Z,94510.00
2023-04-25T04:39:29.457Z,94510.00
2023-04-25T04:40:29.487Z,94514.00
2023-04-25T04:41:29.476Z,94514.00
2023-04-25T04:42:29.506Z,94514.00
2023-04-25T04:43:29.597Z,94518.00
2023-04-25T04:44:29.659Z,94514.00
2023-04-25T04:45:29.616Z,94516.00
2023-04-25T04:46:29.722Z,94514.00
2023-04-25T04:47:29.785Z,94516.00
2023-04-25T04:48:29.796Z,94514.00
2023-04-25T04:49:29.878Z,94516.00
2023-04-25T04:50:29.807Z,94514.00
2023-04-25T04:51:29.803Z,94512.00
2023-04-25T04:52:29.821Z,94512.00
2023-04-25T04:53:29.911Z,94512.00
2023-04-25T04:54:29.851Z,94512.00
2023-04-25T04:55:29.891Z,94512.00
2023-04-25T04:56:29.929Z,94508.00
2023-04-25T04:57:29.890Z,94508.00
2023-04-25T04:58:29.950Z,94505.00
2023-04-25T04:59:29.923Z,94503.00
2023-04-25T05:00:29.933Z,94507.00
2023-04-25T05:01:30.027Z,94508.00
2023-04-25T05:02:30.114Z,94503.00
2023-04-25T05:03:30.358Z,94508.00
2023-04-25T05:04:30.072Z,94508.00
2023-04-25T05:05:30.031Z,94508.00
2023-04-25T05:06:30.036Z,94512.00
2023-04-25T05:07:30.026Z,94508.00
2023-04-25T05:08:30.041Z,94507.00
2023-04-25T05:09:30.039Z,94507.00
2023-04-25T05:10:30.035Z,94505.00
2023-04-25T05:11:30.041Z,94505.00
2023-04-25T05:12:30.127Z,94503.00
2023-04-25T05:13:30.129Z,94503.00
2023-04-25T05:14:30.123Z,94499.00
2023-04-25T05:15:30.234Z,94501.00
2023-04-25T05:16:30.211Z,94499.00
2023-04-25T05:17:30.214Z,94501.00
2023-04-25T05:18:30.291Z,94499.00
2023-04-25T05:19:30.253Z,94501.00
2023-04-25T05:20:30.361Z,94503.00
2023-04-25T05:21:30.244Z,94503.00
2023-04-25T05:22:30.288Z,94505.00
2023-04-25T05:23:30.283Z,94505.00
2023-04-25T05:24:30.307Z,94507.00
2023-04-25T05:25:30.259Z,94508.00
2023-04-25T05:26:30.765Z,94507.00
2023-04-25T05:27:30.277Z,94508.00
2023-04-25T05:28:30.396Z,94508.00
2023-04-25T05:29:30.277Z,94505.00
2023-04-25T05:30:30.295Z,94505.00
2023-04-25T05:31:30.347Z,94501.00
2023-04-25T05:32:30.348Z,94501.00
2023-04-25T05:33:30.309Z,94501.00
2023-04-25T05:34:30.337Z,94503.00
2023-04-25T05:35:30.763Z,94499.00
2023-04-25T05:36:30.415Z,94497.00
2023-04-25T05:37:30.349Z,94497.00
2023-04-25T05:38:31.538Z,94491.00
2023-04-25T05:39:30.345Z,94487.00
2023-04-25T05:40:30.595Z,94487.00
2023-04-25T05:41:30.296Z,94491.00
2023-04-25T05:42:30.324Z,94487.00
2023-04-25T05:43:30.320Z,94489.00
2023-04-25T05:44:30.273Z,94493.00
2023-04-25T05:46:57.438Z,94493.00
2023-04-25T05:47:49.829Z,94491.00
2023-04-25T05:48:49.801Z,94487.00
2023-04-25T05:49:49.764Z,94487.00
2023-04-25T05:50:49.788Z,94489.00
2023-04-25T05:51:49.845Z,94489.00
2023-04-25T05:52:49.759Z,94493.00
2023-04-25T05:53:50.006Z,94497.00
2023-04-25T05:54:49.724Z,94495.00
2023-04-25T05:55:49.997Z,94495.00
2023-04-25T05:56:49.823Z,94491.00
2023-04-25T05:57:51.627Z,94483.00
2023-04-25T05:58:49.820Z,94481.00
2023-04-25T05:59:49.719Z,94473.00
2023-04-25T06:00:50.019Z,94465.00
2023-04-25T06:01:49.742Z,94460.00
2023-04-25T06:02:49.919Z,94460.00
2023-04-25T06:03:50.223Z,94458.00
2023-04-25T06:04:50.501Z,94456.00
2023-04-25T06:05:50.068Z,94458.00
2023-04-25T06:06:50.520Z,94458.00
2023-04-25T06:07:50.032Z,94463.00
2023-04-25T06:08:50.026Z,94461.00
2023-04-25T06:09:50.100Z,94460.00
2023-04-25T06:10:50.072Z,94463.00
2023-04-25T06:11:50.132Z,94465.00
2023-04-25T06:12:50.123Z,94460.00
2023-04-25T06:13:50.337Z,94461.00
2023-04-25T06:14:50.131Z,94458.00
2023-04-25T06:15:50.296Z,94461.00
2023-04-25T06:16:50.297Z,94463.00
2023-04-25T06:17:50.297Z,94458.00
2023-04-25T06:18:50.280Z,94458.00
2023-04-25T06:19:50.282Z,94460.00
2023-04-25T06:20:50.657Z,94458.00
2023-04-25T06:21:50.294Z,94461.00
2023-04-25T06:22:50.287Z,94460.00
2023-04-25T06:23:50.668Z,94461.00
2023-04-25T06:24:50.410Z,94460.00
2023-04-25T06:25:50.478Z,94463.00
2023-04-25T06:26:50.625Z,94460.00
2023-04-25T06:27:50.595Z,94460.00
2023-04-25T06:28:50.642Z,94458.00
2023-04-25T06:29:50.691Z,94456.00
2023-04-25T06:30:50.710Z,94450.00
2023-04-25T06:31:50.916Z,94444.00
2023-04-25T06:32:50.809Z,94442.00
2023-04-25T06:33:51.201Z,94442.00
2023-04-25T06:34:50.955Z,94440.00
2023-04-25T06:35:50.998Z,94438.00
2023-04-25T06:36:51.036Z,94440.00
2023-04-25T06:37:51.114Z,94440.00
2023-04-25T06:38:51.345Z,94440.00
2023-04-25T06:39:51.242Z,94440.00
2023-04-25T06:40:51.499Z,94442.00
2023-04-25T06:41:51.344Z,94446.00
2023-04-25T06:42:51.358Z,94446.00
2023-04-25T06:43:51.675Z,94442.00
2023-04-25T06:44:51.407Z,94444.00
2023-04-25T06:45:51.470Z,94446.00
2023-04-25T06:46:51.679Z,94444.00
2023-04-25T06:47:51.613Z,94442.00
2023-04-25T06:48:51.924Z,94446.00
2023-04-25T06:49:51.471Z,94438.00
2023-04-25T06:50:51.575Z,94442.00
2023-04-25T06:51:51.560Z,94440.00
2023-04-25T06:52:51.540Z,94442.00
2023-04-25T06:53:51.702Z,94436.00
2023-04-25T06:54:51.799Z,94434.00
2023-04-25T06:55:52.105Z,94428.00
2023-04-25T06:56:53.256Z,94434.00
2023-04-25T06:57:51.874Z,94428.00
2023-04-25T06:58:53.782Z,94426.00
2023-04-25T06:59:51.911Z,94428.00
2023-04-25T07:00:51.994Z,94426.00
2023-04-25T07:01:52.464Z,94426.00
2023-04-25T07:02:52.199Z,94422.00
2023-04-25T07:03:52.275Z,94422.00
2023-04-25T07:04:52.125Z,94422.00
2023-04-25T07:05:52.028Z,94422.00
2023-04-25T07:06:52.571Z,94416.00
2023-04-25T07:07:52.068Z,94418.00
2023-04-25T07:08:53.645Z,94418.00
2023-04-25T07:09:52.143Z,94420.00
2023-04-25T07:10:52.176Z,94420.00
2023-04-25T07:11:52.661Z,94418.00
2023-04-25T07:12:52.305Z,94416.00
2023-04-25T07:13:52.308Z,94418.00
2023-04-25T07:14:52.431Z,94416.00
2023-04-25T07:15:52.439Z,94418.00
2023-04-25T07:16:53.963Z,94416.00
2023-04-25T07:17:52.540Z,94414.00
2023-04-25T07:18:52.809Z,94420.00
2023-04-25T07:19:52.647Z,94422.00
2023-04-25T07:20:52.768Z,94422.00
2023-04-25T07:21:54.205Z,94422.00
2023-04-25T07:22:52.769Z,94422.00
2023-04-25T07:23:53.011Z,94426.00
2023-04-25T07:24:52.823Z,94426.00
2023-04-25T07:25:52.924Z,94428.00
2023-04-25T07:26:53.068Z,94422.00
2023-04-25T07:27:52.921Z,94422.00
2023-04-25T07:28:53.350Z,94422.00
2023-04-25T07:29:55.264Z,94422.00
2023-04-25T07:30:53.189Z,94420.00
2023-04-25T07:31:53.119Z,94420.00
2023-04-25T07:32:53.070Z,94424.00
2023-04-25T07:33:53.040Z,94426.00
2023-04-25T07:34:53.705Z,94424.00
2023-04-25T07:35:53.062Z,94428.00
2023-04-25T07:36:53.120Z,94424.00
2023-04-25T07:37:53.990Z,94424.00
2023-04-25T07:38:53.359Z,94424.00
2023-04-25T07:39:53.532Z,94426.00
2023-04-25T07:40:54.140Z,94428.00
2023-04-25T07:41:55.321Z,94428.00
2023-04-25T07:42:53.384Z,94426.00
2023-04-25T07:43:53.387Z,94422.00
2023-04-25T07:44:53.429Z,94422.00
2023-04-25T07:45:53.586Z,94420.00
2023-04-25T07:46:53.992Z,94416.00
2023-04-25T07:47:53.574Z,94416.00
2023-04-25T07:48:54.595Z,94418.00
2023-04-25T07:49:53.709Z,94418.00
2023-04-25T07:50:53.787Z,94420.00
2023-04-25T07:51:54.114Z,94420.00
2023-04-25T07:52:53.852Z,94422.00
2023-04-25T07:53:54.730Z,94428.00
2023-04-25T07:54:53.965Z,94424.00
2023-04-25T07:55:54.271Z,94424.00
2023-04-25T07:56:54.033Z,94426.00
2023-04-25T07:57:54.469Z,94424.00
2023-04-25T07:58:54.376Z,94420.00
2023-04-25T07:59:54.081Z,94418.00
2023-04-25T08:00:54.147Z,94422.00
2023-04-25T08:01:54.605Z,94420.00
2023-04-25T08:02:54.418Z,94420.00
2023-04-25T08:03:54.520Z,94422.00
2023-04-25T08:04:54.465Z,94420.00
2023-04-25T08:05:55.166Z,94420.00
2023-04-25T08:06:55.939Z,94422.00
2023-04-25T08:07:55.989Z,94420.00
2023-04-25T08:08:55.009Z,94420.00
2023-04-25T08:09:54.663Z,94420.00
2023-04-25T08:10:54.754Z,94422.00
2023-04-25T08:11:55.367Z,94420.00
2023-04-25T08:12:54.902Z,94424.00
2023-04-25T08:13:55.392Z,94420.00
2023-04-25T08:14:54.961Z,94420.00
2023-04-25T08:15:56.020Z,94422.00
2023-04-25T08:16:55.076Z,94420.00
2023-04-25T08:17:55.033Z,94424.00
2023-04-25T08:18:56.382Z,94428.00
2023-04-25T08:19:55.360Z,94426.00
2023-04-25T08:20:55.752Z,94428.00
2023-04-25T08:21:55.313Z,94428.00
2023-04-25T08:22:55.263Z,94430.00
2023-04-25T08:23:55.566Z,94426.00
2023-04-25T08:24:55.557Z,94426.00
2023-04-25T08:25:55.249Z,94426.00
2023-04-25T08:26:56.721Z,94428.00
2023-04-25T08:27:55.678Z,94426.00
2023-04-25T08:28:55.253Z,94430.00
2023-04-25T08:29:56.917Z,94426.00
2023-04-25T08:30:55.343Z,94420.00
2023-04-25T08:31:55.952Z,94420.00
2023-04-25T08:32:55.331Z,94424.00
2023-04-25T08:33:55.561Z,94416.00
2023-04-25T08:34:55.525Z,94414.00
2023-04-25T08:35:55.414Z,94416.00
2023-04-25T08:36:56.123Z,94411.00
2023-04-25T08:37:55.364Z,94413.00
2023-04-25T08:38:55.760Z,94411.00
2023-04-25T08:39:55.499Z,94413.00
2023-04-25T08:40:56.400Z,94414.00
2023-04-25T08:41:55.562Z,94414.00
2023-04-25T08:42:56.398Z,94414.00
2023-04-25T08:43:55.615Z,94416.00
2023-04-25T08:44:56.630Z,94416.00
2023-04-25T08:45:55.798Z,94420.00
2023-04-25T08:46:55.798Z,94418.00
2023-04-25T08:47:55.914Z,94418.00
2023-04-25T08:48:57.674Z,94416.00
2023-04-25T08:49:55.884Z,94413.00
2023-04-25T08:50:55.868Z,94414.00
2023-04-25T08:51:56.066Z,94414.00
2023-04-25T08:52:56.435Z,94413.00
2023-04-25T08:53:57.857Z,94413.00
2023-04-25T08:54:56.085Z,94414.00
2023-04-25T08:55:56.913Z,94413.00
2023-04-25T08:56:56.076Z,94413.00
2023-04-25T08:57:56.013Z,94413.00
2023-04-25T08:58:56.015Z,94414.00
2023-04-25T08:59:56.027Z,94414.00
2023-04-25T09:00:56.329Z,94413.00
2023-04-25T09:01:56.105Z,94413.00
2023-04-25T09:02:56.412Z,94413.00
2023-04-25T09:03:56.261Z,94409.00
2023-04-25T09:04:56.466Z,94409.00
2023-04-25T09:05:56.225Z,94411.00
2023-04-25T09:06:55.946Z,94407.00
2023-04-25T09:07:55.906Z,94411.00
2023-04-25T09:08:55.901Z,94413.00
2023-04-25T09:09:55.944Z,94411.00
2023-04-25T09:10:55.925Z,94407.00
2023-04-25T09:11:56.286Z,94405.00
2023-04-25T09:12:55.936Z,94403.00
2023-04-25T09:13:55.901Z,94407.00
2023-04-25T09:14:55.899Z,94405.00
2023-04-25T09:15:56.016Z,94409.00
2023-04-25T09:16:55.980Z,94407.00
2023-04-25T09:17:56.123Z,94409.00
2023-04-25T09:18:56.031Z,94407.00
2023-04-25T09:19:55.986Z,94407.00
2023-04-25T09:21:01.054Z,94405.00
2023-04-25T09:21:57.161Z,94405.00
2023-04-25T09:22:56.065Z,94403.00
2023-04-25T09:23:55.973Z,94405.00
2023-04-25T09:24:56.019Z,94405.00
2023-04-25T09:25:56.912Z,94401.00
2023-04-25T09:26:58.959Z,94407.00
2023-04-25T09:27:55.973Z,94405.00
2023-04-25T09:28:56.010Z,94409.00
2023-04-25T09:29:56.033Z,94409.00
2023-04-25T09:30:56.275Z,94411.00
2023-04-25T09:31:55.930Z,94411.00
2023-04-25T09:32:56.078Z,94411.00
2023-04-25T09:33:56.968Z,94413.00
2023-04-25T09:34:55.942Z,94414.00
2023-04-25T09:35:56.261Z,94416.00
2023-04-25T09:36:58.198Z,94413.00
2023-04-25T09:37:56.139Z,94413.00
2023-04-25T09:38:56.586Z,94409.00
2023-04-25T09:39:55.903Z,94411.00
2023-04-25T09:40:56.438Z,94407.00
2023-04-25T09:41:56.441Z,94409.00
2023-04-25T09:42:56.617Z,94407.00
2023-04-25T09:43:56.051Z,94405.00
2023-04-25T09:44:56.119Z,94409.00
2023-04-25T09:45:57.496Z,94409.00
2023-04-25T09:46:56.165Z,94409.00
2023-04-25T09:47:56.650Z,94409.00
2023-04-25T09:48:56.067Z,94407.00
2023-04-25T09:49:56.206Z,94409.00
2023-04-25T09:50:56.094Z,94407.00
2023-04-25T09:51:56.216Z,94407.00
2023-04-25T09:52:56.177Z,94407.00
2023-04-25T09:53:56.189Z,94407.00
2023-04-25T09:54:56.125Z,94405.00
2023-04-25T09:55:56.081Z,94409.00
2023-04-25T09:56:56.102Z,94409.00
2023-04-25T09:57:56.925Z,94407.00
2023-04-25T09:58:56.071Z,94413.00
2023-04-25T09:59:56.067Z,94416.00
2023-04-25T10:00:56.088Z,94418.00
2023-04-25T10:01:56.149Z,94416.00
2023-04-25T10:02:56.137Z,94414.00
2023-04-25T10:03:56.063Z,94416.00
2023-04-25T10:04:56.348Z,94414.00
2023-04-25T10:05:56.963Z,94416.00
2023-04-25T10:06:55.948Z,94414.00
2023-04-25T10:07:56.044Z,94413.00
2023-04-25T10:08:56.000Z,94409.00
2023-04-25T10:09:55.984Z,94413.00
2023-04-25T10:10:55.982Z,94413.00
2023-04-25T10:11:55.985Z,94411.00
2023-04-25T10:12:56.962Z,94409.00
2023-04-25T10:13:56.023Z,94411.00
2023-04-25T10:14:56.128Z,94407.00
2023-04-25T10:15:56.079Z,94409.00
2023-04-25T10:16:56.185Z,94405.00
2023-04-25T10:17:56.405Z,94405.00
2023-04-25T10:18:55.952Z,94403.00
2023-04-25T10:19:55.951Z,94401.00
2023-04-25T10:20:56.314Z,94405.00
2023-04-25T10:21:56.018Z,94403.00
2023-04-25T10:22:56.076Z,94399.00
2023-04-25T10:23:56.398Z,94391.00
2023-04-25T10:24:56.096Z,94389.00
2023-04-25T10:25:56.523Z,94391.00
2023-04-25T10:26:56.449Z,94391.00
2023-04-25T10:27:56.237Z,94389.00
2023-04-25T10:28:56.476Z,94385.00
2023-04-25T10:29:56.224Z,94383.00
2023-04-25T10:30:56.642Z,94383.00
2023-04-25T10:31:56.594Z,94385.00
2023-04-25T10:32:56.991Z,94379.00
2023-04-25T10:33:56.547Z,94383.00
2023-04-25T10:34:56.404Z,94379.00
2023-04-25T10:35:56.408Z,94375.00
2023-04-25T10:36:56.467Z,94377.00
2023-04-25T10:37:56.942Z,94373.00
2023-04-25T10:38:56.421Z,94373.00
2023-04-25T10:39:56.938Z,94375.00
2023-04-25T10:40:56.464Z,94371.00
2023-04-25T10:41:57.005Z,94366.00
2023-04-25T10:42:57.284Z,94366.00
2023-04-25T10:43:56.524Z,94369.00
2023-04-25T10:44:56.535Z,94368.00
2023-04-25T10:45:56.566Z,94366.00
2023-04-25T10:46:56.634Z,94366.00
2023-04-25T10:47:56.740Z,94368.00
2023-04-25T10:48:57.430Z,94369.00
2023-04-25T10:49:56.637Z,94369.00
2023-04-25T10:50:56.709Z,94368.00
2023-04-25T10:51:57.017Z,94368.00
2023-04-25T10:52:56.889Z,94369.00
2023-04-25T10:53:57.350Z,94369.00
2023-04-25T10:54:56.731Z,94373.00
2023-04-25T10:55:57.141Z,94373.00
2023-04-25T10:56:57.222Z,94375.00
2023-04-25T10:58:57.291Z,94379.00
2023-04-25T10:59:57.008Z,94377.00
2023-04-25T11:00:57.983Z,94381.00
2023-04-25T11:01:57.143Z,94379.00
2023-04-25T11:02:57.251Z,94379.00
2023-04-25T11:03:57.898Z,94375.00
2023-04-25T11:04:57.179Z,94371.00
2023-04-25T11:05:58.481Z,94369.00
2023-04-25T11:07:01.285Z,94371.00
2023-04-25T11:08:06.572Z,94369.00
2023-04-25T11:08:59.425Z,94366.00
2023-04-25T11:09:57.347Z,94369.00
2023-04-25T11:10:57.263Z,94369.00
2023-04-25T11:11:57.223Z,94366.00
2023-04-25T11:12:57.256Z,94366.00
2023-04-25T11:13:58.276Z,94364.00
2023-04-25T11:14:57.273Z,94364.00
2023-04-25T11:16:03.347Z,94368.00
2023-04-25T11:16:59.775Z,94366.00
2023-04-25T11:17:57.474Z,94364.00
2023-04-25T11:18:57.272Z,94364.00
2023-04-25T11:19:57.307Z,94366.00
2023-04-25T11:20:57.636Z,94364.00
2023-04-25T11:21:57.313Z,94362.00
2023-04-25T11:22:57.279Z,94364.00
2023-04-25T11:23:57.284Z,94364.00
2023-04-25T11:24:57.654Z,94362.00
2023-04-25T11:25:57.324Z,94362.00
2023-04-25T11:26:57.221Z,94362.00
2023-04-25T11:27:57.352Z,94366.00
2023-04-25T11:28:57.646Z,94366.00
2023-04-25T11:29:57.494Z,94368.00
2023-04-25T11:30:57.240Z,94369.00
2023-04-25T11:31:58.138Z,94371.00
2023-04-25T11:32:57.274Z,94375.00
2023-04-25T11:33:57.810Z,94375.00
2023-04-25T11:34:57.465Z,94377.00
2023-04-25T11:35:57.507Z,94383.00
2023-04-25T11:36:57.200Z,94385.00
2023-04-25T11:37:57.294Z,94385.00
2023-04-25T11:38:58.156Z,94387.00
2023-04-25T11:39:57.803Z,94389.00
2023-04-25T11:40:57.508Z,94391.00
2023-04-25T11:41:57.514Z,94401.00
2023-04-25T11:42:57.123Z,94409.00
2023-04-25T11:43:57.173Z,94414.00
2023-04-25T11:44:57.115Z,94424.00
2023-04-25T11:45:57.441Z,94424.00
2023-04-25T11:46:57.165Z,94426.00
2023-04-25T11:47:57.213Z,94422.00
2023-04-25T11:48:57.099Z,94428.00
2023-04-25T11:49:57.105Z,94430.00